createdAt,value
2022-07-27T00:00:47.041Z,59.98
2022-07-27T00:03:13.518Z,60.05
2022-07-27T00:05:39.935Z,59.92
2022-07-27T00:08:06.900Z,60.08
2022-07-27T00:10:34.371Z,60.21
2022-07-27T00:13:00.800Z,60.33
2022-07-27T00:15:27.347Z,60.68
2022-07-27T00:17:53.767Z,60.90
2022-07-27T00:20:20.230Z,60.71
2022-07-27T00:22:54.904Z,61.12
2022-07-27T00:25:22.175Z,61.13
2022-07-27T00:27:48.730Z,61.21
2022-07-27T00:30:15.184Z,61.06
2022-07-27T00:32:41.678Z,61.46
2022-07-27T00:35:08.867Z,61.44
2022-07-27T00:37:35.320Z,61.62
2022-07-27T00:40:02.350Z,62.62
2022-07-27T00:42:28.797Z,62.90
2022-07-27T00:44:55.587Z,63.97
2022-07-27T00:47:22.492Z,63.78
2022-07-27T00:49:48.954Z,63.45
2022-07-27T00:52:15.828Z,64.39
2022-07-27T00:54:43.795Z,64.69
2022-07-27T00:57:11.491Z,64.85
2022-07-27T00:59:38.524Z,65.17
2022-07-27T01:02:11.377Z,65.42
2022-07-27T01:04:38.989Z,66.26
2022-07-27T01:07:07.195Z,66.06
2022-07-27T01:09:53.115Z,66.60
2022-07-27T01:12:20.912Z,66.67
2022-07-27T01:14:49.200Z,66.78
2022-07-27T01:17:16.759Z,66.64
2022-07-27T01:19:44.404Z,66.73
2022-07-27T01:22:11.588Z,66.97
2022-07-27T01:24:38.347Z,67.20
2022-07-27T01:27:06.022Z,67.33
2022-07-27T01:29:33.684Z,66.97
2022-07-27T01:32:01.597Z,67.42
2022-07-27T01:34:28.060Z,67.82
2022-07-27T01:36:54.540Z,67.80
2022-07-27T01:39:21.089Z,67.54
2022-07-27T01:41:47.537Z,67.35
2022-07-27T01:44:14.253Z,67.69
2022-07-27T01:46:40.820Z,68.06
2022-07-27T01:49:07.427Z,68.10
2022-07-27T01:51:33.903Z,68.22
2022-07-27T01:54:00.374Z,68.73
2022-07-27T01:56:27.045Z,68.63
2022-07-27T01:58:53.526Z,68.91
2022-07-27T02:01:19.981Z,68.70
2022-07-27T02:03:46.511Z,68.85
2022-07-27T02:06:13.013Z,68.99
2022-07-27T02:08:40.023Z,69.48
2022-07-27T02:11:25.156Z,70.12
2022-07-27T02:13:51.589Z,70.50
2022-07-27T02:16:18.901Z,71.00
2022-07-27T02:18:46.088Z,71.73
2022-07-27T02:21:15.303Z,72.24
2022-07-27T02:23:44.510Z,72.70
2022-07-27T02:26:11.326Z,72.68
2022-07-27T02:28:37.898Z,72.75
2022-07-27T02:31:05.037Z,72.56
2022-07-27T02:33:31.786Z,73.19
2022-07-27T02:35:58.290Z,72.98
2022-07-27T02:38:25.870Z,72.90
2022-07-27T02:40:52.546Z,73.10
2022-07-27T02:43:18.973Z,72.90
2022-07-27T02:45:46.504Z,73.31
2022-07-27T02:48:13.305Z,73.02
2022-07-27T02:50:39.766Z,73.36
2022-07-27T02:53:06.211Z,73.75
2022-07-27T02:55:32.641Z,74.22
2022-07-27T02:57:59.084Z,74.34
2022-07-27T03:00:25.798Z,74.38
2022-07-27T03:02:52.301Z,75.17
2022-07-27T03:05:18.774Z,75.21
2022-07-27T03:07:45.210Z,75.86
2022-07-27T03:10:11.680Z,75.49
2022-07-27T03:12:38.118Z,75.36
2022-07-27T03:15:05.158Z,76.47
2022-07-27T03:17:32.802Z,77.14
2022-07-27T03:19:59.336Z,77.42
2022-07-27T03:22:25.857Z,77.79
2022-07-27T03:24:52.300Z,77.42
2022-07-27T03:27:18.746Z,77.16
2022-07-27T03:29:45.850Z,78.03
2022-07-27T03:32:12.314Z,77.88
2022-07-27T03:34:38.769Z,78.12
2022-07-27T03:37:05.394Z,78.22
2022-07-27T03:39:31.852Z,77.97
2022-07-27T03:41:58.367Z,78.23
2022-07-27T03:44:24.779Z,78.41
2022-07-27T03:46:51.209Z,78.52
2022-07-27T03:49:17.894Z,78.24
2022-07-27T03:51:44.424Z,78.30
2022-07-27T03:54:10.850Z,78.49
2022-07-27T03:56:37.263Z,77.57
2022-07-27T03:59:03.809Z,77.58
2022-07-27T04:01:30.334Z,78.45
2022-07-27T04:03:56.879Z,77.96
2022-07-27T04:06:23.375Z,77.88
2022-07-27T04:08:50.772Z,77.50
2022-07-27T04:11:20.348Z,78.12
2022-07-27T04:13:50.978Z,78.25
2022-07-27T04:16:17.615Z,77.84
2022-07-27T04:18:44.078Z,77.80
2022-07-27T04:21:10.629Z,77.55
2022-07-27T04:23:38.436Z,77.11
2022-07-27T04:26:05.119Z,77.57
2022-07-27T04:28:32.606Z,77.82
2022-07-27T04:30:59.291Z,78.07
2022-07-27T04:33:25.788Z,77.72
2022-07-27T04:35:52.231Z,78.33
2022-07-27T04:38:18.666Z,77.79
2022-07-27T04:40:45.092Z,78.25
2022-07-27T04:43:11.502Z,76.84
2022-07-27T04:45:38.905Z,76.29
2022-07-27T04:48:09.310Z,76.45
2022-07-27T04:50:40.877Z,76.33
2022-07-27T04:53:08.192Z,76.45
2022-07-27T04:55:34.640Z,76.24
2022-07-27T04:58:01.084Z,76.65
2022-07-27T05:00:27.597Z,76.59
2022-07-27T05:02:54.784Z,76.60
2022-07-27T05:05:21.427Z,77.07
2022-07-27T05:07:47.879Z,76.59
2022-07-27T05:10:19.491Z,76.29
2022-07-27T05:12:46.807Z,75.87
2022-07-27T05:15:13.266Z,76.02
2022-07-27T05:17:39.830Z,75.95
2022-07-27T05:20:06.757Z,75.57
2022-07-27T05:22:37.541Z,75.17
2022-07-27T05:25:06.554Z,75.40
2022-07-27T05:27:33.030Z,74.92
2022-07-27T05:29:59.478Z,74.77
2022-07-27T05:32:25.915Z,75.00
2022-07-27T05:34:52.353Z,74.56
2022-07-27T05:37:18.857Z,74.74
2022-07-27T05:39:45.304Z,74.41
2022-07-27T05:42:11.727Z,74.56
2022-07-27T05:44:38.163Z,74.03
2022-07-27T05:47:05.982Z,73.96
2022-07-27T05:49:32.956Z,73.54
2022-07-27T05:51:59.380Z,72.93
2022-07-27T05:54:25.806Z,72.78
2022-07-27T05:56:52.592Z,72.42
2022-07-27T05:59:19.100Z,72.34
2022-07-27T06:01:45.542Z,72.00
2022-07-27T06:04:14.550Z,71.27
2022-07-27T06:06:59.758Z,70.49
2022-07-27T06:09:26.196Z,70.79
2022-07-27T06:11:52.679Z,69.11
2022-07-27T06:14:19.260Z,68.76
2022-07-27T06:16:45.806Z,67.58
2022-07-27T06:19:12.664Z,66.60
2022-07-27T06:21:39.325Z,66.56
2022-07-27T06:24:06.120Z,65.90
2022-07-27T06:26:32.597Z,65.70
2022-07-27T06:29:01.086Z,65.09
2022-07-27T06:31:28.408Z,65.32
2022-07-27T06:34:02.202Z,65.21
2022-07-27T06:36:28.644Z,64.27
2022-07-27T06:38:55.140Z,63.72
2022-07-27T06:41:21.599Z,64.63
2022-07-27T06:43:48.090Z,64.66
2022-07-27T06:46:14.576Z,64.21
2022-07-27T06:48:41.608Z,64.63
2022-07-27T06:51:08.674Z,63.77
2022-07-27T06:53:36.255Z,64.28
2022-07-27T06:56:04.098Z,63.96
2022-07-27T06:58:35.064Z,63.41
2022-07-27T07:01:02.408Z,64.00
2022-07-27T07:03:29.779Z,63.91
2022-07-27T07:05:57.183Z,64.14
2022-07-27T07:08:23.614Z,64.46
2022-07-27T07:10:50.737Z,64.21
2022-07-27T07:13:17.146Z,63.93
2022-07-27T07:15:43.753Z,63.24
2022-07-27T07:18:11.507Z,63.46
2022-07-27T07:20:38.307Z,63.51
2022-07-27T07:23:05.475Z,63.68
2022-07-27T07:25:32.936Z,62.54
2022-07-27T07:27:59.880Z,63.04
2022-07-27T07:30:27.320Z,62.06
2022-07-27T07:32:53.813Z,61.79
2022-07-27T07:35:20.247Z,61.63
2022-07-27T07:37:49.755Z,62.35
2022-07-27T07:40:43.217Z,61.46
2022-07-27T07:43:05.818Z,61.54
2022-07-27T07:45:35.418Z,60.89
2022-07-27T07:48:01.840Z,60.71
2022-07-27T07:50:28.456Z,60.78
2022-07-27T07:52:55.261Z,60.54
2022-07-27T07:55:31.260Z,59.66
2022-07-27T07:57:59.887Z,59.91
2022-07-27T08:00:26.333Z,60.08
2022-07-27T08:02:55.196Z,60.22
2022-07-27T08:05:21.981Z,60.52
2022-07-27T08:07:49.611Z,60.44
2022-07-27T08:10:17.416Z,60.20
2022-07-27T08:12:47.364Z,59.99
2022-07-27T08:15:14.911Z,59.77
2022-07-27T08:17:43.106Z,59.74
2022-07-27T08:20:10.448Z,59.02
2022-07-27T08:22:36.859Z,59.24
2022-07-27T08:25:04.315Z,58.21
2022-07-27T08:27:30.779Z,57.67
2022-07-27T08:30:09.047Z,56.94
2022-07-27T08:32:59.721Z,56.35
2022-07-27T08:35:29.962Z,56.33
2022-07-27T08:37:57.129Z,55.24
2022-07-27T08:43:11.502Z,54.09
2022-07-27T08:45:38.516Z,54.74
2022-07-27T08:48:05.949Z,55.33
2022-07-27T08:50:34.724Z,55.39
2022-07-27T08:53:07.341Z,55.52
2022-07-27T08:55:36.262Z,55.67
2022-07-27T08:58:04.107Z,55.21
2022-07-27T09:00:31.683Z,54.93
2022-07-27T09:02:58.325Z,54.91
2022-07-27T09:05:25.059Z,54.76
2022-07-27T09:07:54.122Z,55.40
2022-07-27T09:10:32.327Z,53.79
2022-07-27T09:12:59.076Z,53.21
2022-07-27T09:15:34.177Z,53.10
2022-07-27T09:18:16.146Z,52.48
2022-07-27T09:20:42.621Z,52.64
2022-07-27T09:23:09.087Z,52.43
2022-07-27T09:26:02.279Z,53.06
2022-07-27T09:28:30.218Z,53.22
2022-07-27T09:31:05.804Z,54.10
2022-07-27T09:33:33.797Z,54.64
2022-07-27T09:36:00.481Z,54.28
2022-07-27T09:38:26.925Z,54.41
2022-07-27T09:41:00.864Z,54.17
2022-07-27T09:46:16.264Z,54.38
2022-07-27T09:48:42.988Z,54.13
2022-07-27T09:51:55.784Z,53.76
2022-07-27T09:54:05.808Z,53.97
2022-07-27T09:56:32.811Z,53.92
2022-07-27T09:59:00.995Z,54.33
2022-07-27T10:01:30.201Z,52.96
2022-07-27T10:04:00.389Z,52.83
2022-07-27T10:06:28.029Z,52.67
2022-07-27T10:08:55.929Z,51.89
2022-07-27T10:11:23.666Z,53.14
2022-07-27T10:13:52.576Z,52.40
2022-07-27T10:16:22.167Z,51.72
2022-07-27T10:19:15.339Z,51.39
2022-07-27T10:21:45.240Z,51.88
2022-07-27T10:24:24.215Z,50.71
2022-07-27T10:26:50.680Z,50.86
2022-07-27T10:29:23.469Z,51.04
2022-07-27T10:31:52.569Z,50.94
2022-07-27T10:34:43.975Z,49.47
2022-07-27T10:37:14.840Z,49.80
2022-07-27T10:39:41.189Z,50.14
2022-07-27T10:42:30.728Z,50.05
2022-07-27T10:44:59.859Z,50.06
2022-07-27T10:47:32.329Z,50.05
2022-07-27T10:50:16.954Z,50.52
2022-07-27T10:52:45.372Z,50.88
2022-07-27T10:55:42.642Z,50.17
2022-07-27T10:58:09.009Z,49.38
2022-07-27T11:00:54.757Z,49.04
2022-07-27T11:03:28.340Z,49.11
2022-07-27T11:06:03.281Z,49.52
2022-07-27T11:08:47.269Z,49.03
2022-07-27T11:11:19.942Z,47.92
2022-07-27T11:13:49.427Z,49.06
2022-07-27T11:16:25.908Z,49.91
2022-07-27T11:19:03.830Z,49.67
2022-07-27T11:21:36.487Z,48.97
2022-07-27T11:24:14.575Z,49.74
2022-07-27T11:26:50.101Z,48.80
2022-07-27T11:29:18.943Z,49.23
2022-07-27T11:31:56.340Z,49.91
2022-07-27T11:34:31.828Z,50.10
2022-07-27T11:37:02.096Z,48.33
2022-07-27T11:42:21.739Z,47.95
2022-07-27T11:44:52.610Z,47.00
2022-07-27T11:47:21.441Z,47.11
2022-07-27T11:49:47.935Z,46.88
2022-07-27T11:52:17.292Z,46.00
2022-07-27T11:54:43.742Z,45.61
2022-07-27T11:57:16.322Z,45.23
2022-07-27T11:59:44.629Z,45.44
2022-07-27T12:02:17.917Z,45.19
2022-07-27T12:04:46.578Z,45.33
2022-07-27T12:07:17.075Z,45.36
2022-07-27T12:09:48.667Z,45.38
2022-07-27T12:12:19.006Z,44.56
2022-07-27T12:14:51.304Z,42.65
2022-07-27T12:17:31.608Z,43.67
2022-07-27T12:20:00.271Z,44.42
2022-07-27T12:22:33.238Z,43.53
2022-07-27T12:25:01.904Z,44.36
2022-07-27T12:27:28.981Z,43.97
2022-07-27T12:29:56.456Z,43.48
2022-07-27T12:32:23.353Z,43.86
2022-07-27T12:34:49.788Z,43.16
2022-07-27T12:37:16.245Z,43.13
2022-07-27T12:39:44.165Z,42.31
2022-07-27T12:42:11.151Z,41.96
2022-07-27T12:44:41.276Z,41.88
2022-07-27T12:47:28.229Z,42.09
2022-07-27T12:50:15.707Z,41.81
2022-07-27T12:52:51.875Z,41.56
2022-07-27T12:55:20.453Z,42.58
2022-07-27T12:57:56.502Z,42.74
2022-07-27T13:00:29.405Z,42.88
2022-07-27T13:03:00.916Z,42.31
2022-07-27T13:05:27.433Z,42.90
2022-07-27T13:07:53.966Z,42.60
2022-07-27T13:10:20.510Z,42.89
2022-07-27T13:12:47.833Z,43.34
2022-07-27T13:15:15.215Z,43.17
2022-07-27T13:17:42.627Z,43.44
2022-07-27T13:20:10.845Z,42.86
2022-07-27T13:22:39.475Z,43.35
2022-07-27T13:25:16.132Z,42.99
2022-07-27T13:27:45.255Z,42.82
2022-07-27T13:30:13.303Z,43.78
2022-07-27T13:32:40.615Z,42.91
2022-07-27T13:35:09.141Z,42.89
2022-07-27T13:37:35.599Z,43.23
2022-07-27T13:40:02.032Z,42.05
2022-07-27T13:42:28.629Z,42.65
2022-07-27T13:45:08.664Z,42.41
2022-07-27T13:47:36.320Z,41.59
2022-07-27T13:50:03.478Z,41.47
2022-07-27T13:52:30.042Z,41.54
2022-07-27T13:54:56.455Z,42.00
2022-07-27T13:57:23.504Z,41.58
2022-07-27T13:59:49.909Z,42.43
2022-07-27T14:02:16.448Z,42.63
2022-07-27T14:04:49.300Z,42.50
2022-07-27T14:07:15.793Z,42.52
2022-07-27T14:10:01.191Z,42.35
2022-07-27T14:12:27.693Z,42.62
2022-07-27T14:14:54.163Z,42.94
2022-07-27T14:17:20.617Z,42.02
2022-07-27T14:19:47.037Z,42.17
2022-07-27T14:22:13.465Z,42.26
2022-07-27T14:24:39.898Z,41.86
2022-07-27T14:27:06.677Z,42.10
2022-07-27T14:29:34.175Z,42.27
2022-07-27T14:32:01.123Z,42.41
2022-07-27T14:34:27.648Z,42.29
2022-07-27T14:36:54.073Z,41.59
2022-07-27T14:39:20.491Z,41.98
2022-07-27T14:41:46.919Z,42.13
2022-07-27T14:44:14.038Z,41.79
2022-07-27T14:46:40.592Z,41.72
2022-07-27T14:49:08.468Z,42.20
2022-07-27T14:51:35.782Z,42.01
2022-07-27T14:54:03.657Z,42.25
2022-07-27T14:56:30.155Z,42.56
2022-07-27T14:58:56.622Z,42.22
2022-07-27T15:01:23.150Z,41.85
2022-07-27T15:03:50.372Z,41.67
2022-07-27T15:06:17.295Z,41.41
2022-07-27T15:08:43.722Z,41.39
2022-07-27T15:11:10.142Z,41.79
2022-07-27T15:13:36.576Z,42.10
2022-07-27T15:16:03.298Z,41.36
2022-07-27T15:18:34.988Z,41.52
2022-07-27T15:21:13.079Z,41.71
2022-07-27T15:23:42.164Z,41.51
2022-07-27T15:26:08.660Z,41.83
2022-07-27T15:28:36.310Z,42.08
2022-07-27T15:31:02.885Z,42.03
2022-07-27T15:33:29.343Z,42.32
2022-07-27T15:35:56.403Z,42.17
2022-07-27T15:38:22.981Z,42.46
2022-07-27T15:40:49.434Z,42.54
2022-07-27T15:43:17.248Z,42.89
2022-07-27T15:45:47.645Z,41.71
2022-07-27T15:48:15.616Z,41.92
2022-07-27T15:50:45.363Z,42.08
2022-07-27T15:53:13.104Z,41.86
2022-07-27T15:55:39.554Z,42.04
2022-07-27T15:58:06.600Z,41.79
2022-07-27T16:00:39.146Z,41.63
2022-07-27T16:03:07.316Z,41.99
2022-07-27T16:05:33.984Z,41.78
2022-07-27T16:08:00.447Z,41.82
2022-07-27T16:10:29.469Z,41.56
2022-07-27T16:12:56.871Z,42.21
2022-07-27T16:15:43.445Z,42.24
2022-07-27T16:18:10.010Z,42.15
2022-07-27T16:20:36.731Z,41.26
2022-07-27T16:23:03.312Z,41.13
2022-07-27T16:26:02.834Z,40.97
2022-07-27T16:28:30.109Z,40.17
2022-07-27T16:30:57.790Z,40.43
2022-07-27T16:33:24.426Z,40.39
2022-07-27T16:35:51.056Z,40.51
2022-07-27T16:38:17.555Z,41.06
2022-07-27T16:40:43.966Z,41.06
2022-07-27T16:43:10.384Z,41.53
2022-07-27T16:45:37.455Z,41.27
2022-07-27T16:48:03.870Z,40.75
2022-07-27T16:50:30.273Z,40.94
2022-07-27T16:52:56.754Z,41.04
2022-07-27T16:55:23.707Z,41.38
2022-07-27T16:57:53.967Z,41.10
2022-07-27T17:00:20.698Z,41.56
2022-07-27T17:02:47.366Z,42.25
2022-07-27T17:05:13.918Z,41.58
2022-07-27T17:07:41.330Z,41.81
2022-07-27T17:10:08.247Z,41.80
2022-07-27T17:12:39.082Z,41.98
2022-07-27T17:15:06.567Z,41.93
2022-07-27T17:17:32.980Z,42.10
2022-07-27T17:19:59.825Z,42.09
2022-07-27T17:22:26.275Z,42.27
2022-07-27T17:24:52.695Z,42.36
2022-07-27T17:27:19.142Z,42.39
2022-07-27T17:29:45.564Z,42.16
2022-07-27T17:32:12.006Z,42.34
2022-07-27T17:34:38.466Z,42.08
2022-07-27T17:37:04.903Z,42.33
2022-07-27T17:39:31.865Z,42.57
2022-07-27T17:41:58.470Z,42.87
2022-07-27T17:44:24.896Z,42.55
2022-07-27T17:46:51.419Z,42.52
2022-07-27T17:49:18.622Z,42.27
2022-07-27T17:51:45.347Z,42.36
2022-07-27T17:54:11.799Z,42.31
2022-07-27T17:56:38.279Z,42.73
2022-07-27T17:59:34.710Z,42.56
2022-07-27T18:01:52.663Z,43.44
2022-07-27T18:04:19.180Z,43.00
2022-07-27T18:06:45.679Z,43.43
2022-07-27T18:09:14.178Z,43.33
2022-07-27T18:11:41.062Z,43.61
2022-07-27T18:14:07.483Z,43.87
2022-07-27T18:16:40.195Z,43.23
2022-07-27T18:19:07.383Z,43.79
2022-07-27T18:21:34.776Z,43.82
2022-07-27T18:24:01.493Z,44.94
2022-07-27T18:26:28.019Z,44.57
2022-07-27T18:28:55.078Z,44.25
2022-07-27T18:31:21.617Z,44.65
2022-07-27T18:33:50.278Z,45.23
2022-07-27T18:36:17.684Z,45.51
2022-07-27T18:38:49.384Z,45.89
2022-07-27T18:41:19.875Z,47.02
2022-07-27T18:43:53.665Z,47.61
2022-07-27T18:46:23.823Z,47.62
2022-07-27T18:48:50.424Z,47.94
2022-07-27T18:51:17.297Z,49.00
2022-07-27T18:53:44.360Z,49.94
2022-07-27T18:56:11.195Z,49.96
2022-07-27T18:58:37.647Z,49.53
2022-07-27T19:01:04.270Z,50.20
2022-07-27T19:03:30.767Z,50.65
2022-07-27T19:05:58.787Z,51.22
2022-07-27T19:08:25.244Z,51.66
2022-07-27T19:10:51.872Z,52.29
2022-07-27T19:13:18.324Z,52.50
2022-07-27T19:15:45.276Z,52.69
2022-07-27T19:18:11.884Z,52.82
2022-07-27T19:20:38.313Z,53.49
2022-07-27T19:23:06.027Z,53.29
2022-07-27T19:25:33.730Z,54.11
2022-07-27T19:28:00.954Z,54.35
2022-07-27T19:30:27.753Z,54.61
2022-07-27T19:32:54.369Z,55.19
2022-07-27T19:35:20.801Z,55.21
2022-07-27T19:37:47.235Z,55.17
2022-07-27T19:40:42.625Z,56.21
2022-07-27T19:43:00.313Z,56.69
2022-07-27T19:45:26.801Z,57.21
2022-07-27T19:47:53.243Z,57.61
2022-07-27T19:50:19.748Z,57.67
2022-07-27T19:52:46.185Z,57.99
2022-07-27T19:55:12.638Z,57.82
2022-07-27T19:57:39.053Z,58.19
2022-07-27T20:00:07.716Z,59.63
2022-07-27T20:02:34.619Z,59.55
2022-07-27T20:05:01.148Z,58.53
2022-07-27T20:07:27.565Z,58.55
2022-07-27T20:09:54.002Z,58.67
2022-07-27T20:12:21.382Z,58.16
2022-07-27T20:14:48.063Z,59.06
2022-07-27T20:17:14.557Z,59.37
2022-07-27T20:19:41.068Z,58.87
2022-07-27T20:22:07.526Z,58.74
2022-07-27T20:24:33.967Z,58.88
2022-07-27T20:27:00.424Z,59.60
2022-07-27T20:29:29.538Z,59.21
2022-07-27T20:31:59.628Z,58.50
2022-07-27T20:34:26.161Z,58.81
2022-07-27T20:36:55.129Z,59.79
2022-07-27T20:39:21.977Z,60.35
2022-07-27T20:41:48.712Z,60.45
2022-07-27T20:44:15.185Z,60.88
2022-07-27T20:46:41.623Z,61.23
2022-07-27T20:49:08.076Z,61.07
2022-07-27T20:51:34.548Z,61.57
2022-07-27T20:54:00.978Z,61.70
2022-07-27T20:56:27.416Z,61.63
2022-07-27T20:58:53.986Z,62.03
2022-07-27T21:01:20.553Z,61.94
2022-07-27T21:03:47.050Z,62.42
2022-07-27T21:06:13.491Z,62.82
2022-07-27T21:08:45.996Z,63.33
2022-07-27T21:11:13.543Z,63.58
2022-07-27T21:13:40.302Z,63.50
2022-07-27T21:16:06.828Z,63.37
2022-07-27T21:18:33.545Z,63.79
2022-07-27T21:20:59.983Z,63.87
2022-07-27T21:23:44.856Z,64.39
2022-07-27T21:26:11.292Z,64.60
2022-07-27T21:28:41.927Z,65.60
2022-07-27T21:31:08.785Z,65.60
2022-07-27T21:33:39.628Z,65.67
2022-07-27T21:36:06.769Z,66.07
2022-07-27T21:38:33.193Z,66.17
2022-07-27T21:40:59.640Z,66.12
2022-07-27T21:43:26.071Z,66.39
2022-07-27T21:45:52.597Z,66.69
2022-07-27T21:48:19.131Z,66.51
2022-07-27T21:50:45.567Z,67.35
2022-07-27T21:53:12.024Z,66.99
2022-07-27T21:55:40.699Z,67.33
2022-07-27T21:58:07.272Z,67.45
2022-07-27T22:00:33.699Z,67.58
2022-07-27T22:03:00.127Z,67.41
2022-07-27T22:05:27.269Z,67.94
2022-07-27T22:07:53.717Z,67.79
2022-07-27T22:10:20.222Z,68.18
2022-07-27T22:12:46.771Z,68.23
2022-07-27T22:15:13.291Z,68.20
2022-07-27T22:17:46.233Z,67.87
2022-07-27T22:20:17.375Z,68.04
2022-07-27T22:22:43.987Z,68.51
2022-07-27T22:25:10.630Z,68.99
2022-07-27T22:27:37.060Z,69.35
2022-07-27T22:30:04.027Z,69.45
2022-07-27T22:32:30.482Z,69.60
2022-07-27T22:34:56.911Z,69.38
2022-07-27T22:37:23.339Z,69.79
2022-07-27T22:39:49.772Z,70.07
2022-07-27T22:42:16.224Z,69.80
2022-07-27T22:44:43.153Z,70.27
2022-07-27T22:47:10.136Z,70.12
2022-07-27T22:49:37.198Z,70.46
2022-07-27T22:52:07.079Z,70.66
2022-07-27T22:54:37.568Z,70.96
2022-07-27T22:57:05.747Z,70.90
2022-07-27T22:59:32.656Z,71.26
2022-07-27T23:01:59.213Z,71.10
2022-07-27T23:04:25.898Z,70.49
2022-07-27T23:06:52.345Z,70.64
2022-07-27T23:09:18.895Z,71.20
2022-07-27T23:11:45.576Z,71.22
2022-07-27T23:14:12.906Z,71.84
2022-07-27T23:16:39.870Z,71.68
2022-07-27T23:19:06.363Z,71.91
2022-07-27T23:21:32.791Z,72.06
2022-07-27T23:23:59.360Z,72.67
2022-07-27T23:26:27.429Z,73.12
2022-07-27T23:28:54.219Z,72.75
2022-07-27T23:31:21.360Z,72.86
2022-07-27T23:33:47.929Z,72.97
2022-07-27T23:36:15.031Z,73.27
2022-07-27T23:38:41.491Z,73.58
2022-07-27T23:41:08.299Z,72.64
2022-07-27T23:43:34.756Z,73.97
2022-07-27T23:46:01.242Z,73.39
2022-07-27T23:48:28.672Z,73.46
2022-07-27T23:50:56.017Z,73.57
2022-07-27T23:53:22.650Z,73.64
2022-07-27T23:55:49.083Z,73.84
2022-07-27T23:58:15.522Z,73.55
